createdAt,value
2023-05-13T00:01:23.270Z,8.07
2023-05-13T00:03:50.864Z,5.30
2023-05-13T00:06:18.973Z,5.70
2023-05-13T00:08:46.626Z,5.13
2023-05-13T00:11:14.152Z,4.80
2023-05-13T00:13:41.647Z,3.80
2023-05-13T00:16:09.116Z,3.60
2023-05-13T00:18:36.566Z,6.70
2023-05-13T00:21:04.348Z,6.50
2023-05-13T00:23:32.833Z,5.78
2023-05-13T00:26:01.178Z,4.75
2023-05-13T00:28:28.628Z,7.85
2023-05-13T00:30:56.075Z,6.22
2023-05-13T00:33:23.641Z,4.40
2023-05-13T00:35:51.152Z,8.02
2023-05-13T00:38:18.686Z,5.55
2023-05-13T00:40:47.625Z,7.95
2023-05-13T00:43:17.100Z,4.93
2023-05-13T00:45:44.759Z,5.50
2023-05-13T00:48:12.241Z,6.38
2023-05-13T00:50:42.423Z,7.60
2023-05-13T00:53:10.190Z,5.47
2023-05-13T00:55:43.229Z,5.03
2023-05-13T00:58:11.665Z,4.37
2023-05-13T01:01:11.785Z,6.65
2023-05-13T01:04:03.957Z,5.15
2023-05-13T01:06:41.278Z,6.22
2023-05-13T01:09:37.762Z,5.35
2023-05-13T01:12:11.039Z,6.07
2023-05-13T01:14:49.078Z,5.05
2023-05-13T01:17:28.584Z,9.35
2023-05-13T01:19:58.859Z,8.57
2023-05-13T01:22:26.388Z,6.00
2023-05-13T01:24:53.886Z,5.78
2023-05-13T01:27:21.597Z,7.07
2023-05-13T01:29:50.570Z,4.88
2023-05-13T01:32:24.900Z,7.45
2023-05-13T01:34:53.223Z,7.30
2023-05-13T01:37:22.336Z,6.10
2023-05-13T01:39:51.265Z,5.13
2023-05-13T01:42:19.126Z,7.95
2023-05-13T01:44:47.000Z,5.65
2023-05-13T01:47:15.994Z,6.47
2023-05-13T01:49:43.789Z,6.35
2023-05-13T01:52:11.457Z,6.88
2023-05-13T01:54:39.395Z,6.40
2023-05-13T01:57:10.993Z,8.38
2023-05-13T01:59:39.066Z,6.47
2023-05-13T02:02:06.910Z,6.72
2023-05-13T02:04:34.608Z,7.03
2023-05-13T02:07:02.244Z,6.30
2023-05-13T02:09:32.183Z,6.20
2023-05-13T02:12:00.447Z,7.22
2023-05-13T02:14:29.154Z,10.95
2023-05-13T02:16:56.655Z,6.18
2023-05-13T02:19:25.001Z,9.68
2023-05-13T02:21:52.476Z,8.30
2023-05-13T02:24:20.079Z,6.32
2023-05-13T02:26:47.598Z,7.40
2023-05-13T02:29:15.222Z,9.63
2023-05-13T02:31:43.466Z,7.68
2023-05-13T02:34:13.987Z,7.72
2023-05-13T02:36:41.607Z,10.05
2023-05-13T02:39:09.812Z,7.38
2023-05-13T02:41:38.628Z,6.82
2023-05-13T02:44:06.467Z,10.57
2023-05-13T02:46:35.453Z,10.80
2023-05-13T02:49:03.268Z,7.35
2023-05-13T02:51:32.258Z,8.95
2023-05-13T02:53:59.988Z,9.68
2023-05-13T02:56:28.094Z,8.48
2023-05-13T02:58:56.354Z,8.15
2023-05-13T03:01:24.088Z,6.35
2023-05-13T03:03:51.484Z,5.97
2023-05-13T03:06:18.984Z,5.70
2023-05-13T03:08:46.454Z,5.63
2023-05-13T03:11:14.033Z,6.13
2023-05-13T03:13:41.500Z,4.22
2023-05-13T03:16:09.104Z,6.95
2023-05-13T03:18:36.647Z,6.75
2023-05-13T03:21:04.343Z,4.47
2023-05-13T03:23:33.713Z,4.28
2023-05-13T03:26:02.358Z,6.13
2023-05-13T03:28:31.429Z,5.25
2023-05-13T03:30:59.013Z,5.43
2023-05-13T03:33:29.112Z,6.90
2023-05-13T03:35:56.908Z,6.43
2023-05-13T03:38:29.304Z,4.78
2023-05-13T03:40:57.539Z,5.63
2023-05-13T03:43:26.743Z,4.43
2023-05-13T03:45:58.946Z,4.15
2023-05-13T03:48:27.089Z,4.18
2023-05-13T03:50:57.114Z,4.82
2023-05-13T03:53:25.567Z,4.55
2023-05-13T03:55:54.818Z,5.47
2023-05-13T03:58:22.936Z,6.50
2023-05-13T04:00:50.548Z,5.22
2023-05-13T04:03:18.726Z,5.68
2023-05-13T04:05:46.881Z,4.47
2023-05-13T04:08:14.727Z,4.07
2023-05-13T04:10:44.506Z,4.00
2023-05-13T04:13:12.159Z,3.80
2023-05-13T04:15:39.664Z,5.03
2023-05-13T04:18:07.600Z,5.57
2023-05-13T04:20:38.261Z,3.83
2023-05-13T04:23:06.465Z,3.95
2023-05-13T04:25:35.632Z,6.38
2023-05-13T04:28:03.524Z,5.38
2023-05-13T04:30:36.350Z,4.20
2023-05-13T04:33:04.725Z,4.72
2023-05-13T04:35:33.212Z,5.43
2023-05-13T04:38:04.762Z,5.97
2023-05-13T04:40:32.403Z,3.88
2023-05-13T04:43:05.860Z,4.68
2023-05-13T04:48:09.276Z,4.30
2023-05-13T04:50:36.875Z,3.97
2023-05-13T04:53:04.973Z,3.70
2023-05-13T04:55:32.553Z,5.18
2023-05-13T04:57:59.971Z,4.95
2023-05-13T05:00:27.555Z,4.00
2023-05-13T05:02:55.093Z,3.78
2023-05-13T05:05:23.129Z,6.38
2023-05-13T05:07:50.784Z,6.93
2023-05-13T05:10:18.674Z,4.90
2023-05-13T05:12:52.570Z,4.45
2023-05-13T05:15:21.734Z,4.60
2023-05-13T05:17:53.239Z,4.53
2023-05-13T05:20:21.345Z,5.88
2023-05-13T05:22:50.660Z,4.28
2023-05-13T05:25:20.019Z,6.95
2023-05-13T05:27:47.652Z,5.47
2023-05-13T05:30:15.545Z,4.03
2023-05-13T05:32:46.439Z,4.65
2023-05-13T05:35:15.951Z,4.85
2023-05-13T05:37:43.724Z,4.55
2023-05-13T05:40:11.918Z,6.45
2023-05-13T05:42:40.766Z,4.28
2023-05-13T05:45:09.863Z,5.65
2023-05-13T05:47:38.432Z,4.90
2023-05-13T05:50:06.438Z,6.10
2023-05-13T05:52:34.154Z,5.80
2023-05-13T05:55:01.809Z,7.78
2023-05-13T05:57:29.507Z,6.55
2023-05-13T05:59:56.957Z,6.10
2023-05-13T06:02:24.486Z,7.13
2023-05-13T06:04:53.218Z,6.90
2023-05-13T06:07:21.015Z,6.97
2023-05-13T06:09:49.354Z,7.05
2023-05-13T06:12:17.055Z,6.00
2023-05-13T06:14:44.564Z,5.82
2023-05-13T06:17:14.840Z,4.22
2023-05-13T06:19:45.065Z,7.35
2023-05-13T06:22:12.791Z,8.10
2023-05-13T06:24:42.765Z,5.30
2023-05-13T06:27:13.112Z,6.10
2023-05-13T06:29:43.458Z,7.77
2023-05-13T06:32:11.052Z,4.88
2023-05-13T06:34:45.745Z,7.57
2023-05-13T06:37:14.031Z,4.70
2023-05-13T06:39:42.018Z,5.45
2023-05-13T06:42:11.064Z,4.65
2023-05-13T06:44:45.018Z,5.78
2023-05-13T06:47:16.142Z,8.10
2023-05-13T06:49:44.245Z,5.88
2023-05-13T06:52:12.430Z,5.75
2023-05-13T06:54:40.341Z,5.00
2023-05-13T06:57:07.736Z,7.65
2023-05-13T06:59:36.184Z,5.18
2023-05-13T07:02:03.810Z,4.63
2023-05-13T07:04:31.369Z,5.07
2023-05-13T07:06:58.858Z,5.88
2023-05-13T07:09:27.420Z,4.00
2023-05-13T07:11:54.917Z,4.30
2023-05-13T07:14:22.500Z,6.10
2023-05-13T07:16:50.099Z,5.50
2023-05-13T07:19:17.767Z,5.18
2023-05-13T07:21:45.302Z,2.40
2023-05-13T07:24:12.892Z,6.22
2023-05-13T07:26:40.657Z,2.75
2023-05-13T07:29:08.272Z,2.78
2023-05-13T07:31:35.903Z,4.43
2023-05-13T07:34:04.068Z,5.38
2023-05-13T07:36:31.876Z,5.05
2023-05-13T07:38:59.519Z,5.35
2023-05-13T07:41:27.855Z,3.95
2023-05-13T07:43:55.707Z,4.35
2023-05-13T07:46:23.200Z,4.70
2023-05-13T07:48:50.682Z,4.43
2023-05-13T07:51:18.654Z,4.57
2023-05-13T07:53:47.228Z,3.30
2023-05-13T07:56:14.947Z,8.00
2023-05-13T07:58:42.441Z,5.13
2023-05-13T08:01:09.980Z,4.85
2023-05-13T08:03:37.544Z,2.70
2023-05-13T08:06:05.969Z,3.42
2023-05-13T08:08:33.510Z,4.93
2023-05-13T08:11:00.973Z,6.30
2023-05-13T08:16:36.518Z,6.03
2023-05-13T08:19:04.369Z,4.88
2023-05-13T08:21:32.777Z,6.55
2023-05-13T08:24:00.402Z,3.58
2023-05-13T08:26:27.914Z,3.92
2023-05-13T08:28:57.275Z,4.10
2023-05-13T08:31:27.714Z,3.97
2023-05-13T08:33:55.317Z,7.60
2023-05-13T08:36:23.157Z,4.95
2023-05-13T08:38:50.686Z,3.15
2023-05-13T08:41:21.182Z,4.75
2023-05-13T08:43:52.229Z,3.83
2023-05-13T08:46:20.211Z,4.80
2023-05-13T08:48:48.542Z,5.40
2023-05-13T08:51:16.523Z,4.70
2023-05-13T08:53:44.513Z,5.53
2023-05-13T08:56:12.577Z,5.57
2023-05-13T08:58:40.125Z,5.60
2023-05-13T09:01:07.991Z,5.22
2023-05-13T09:03:41.452Z,5.18
2023-05-13T09:06:09.074Z,5.78
2023-05-13T09:08:36.668Z,6.15
2023-05-13T09:11:04.366Z,4.22
2023-05-13T09:13:31.902Z,4.68
2023-05-13T09:15:59.464Z,4.68
2023-05-13T09:18:32.046Z,5.50
2023-05-13T09:21:26.930Z,5.32
2023-05-13T09:24:08.909Z,7.63
2023-05-13T09:26:39.002Z,4.55
2023-05-13T09:29:15.976Z,5.22
2023-05-13T09:31:51.829Z,4.95
2023-05-13T09:34:32.412Z,5.40
2023-05-13T09:37:01.678Z,4.85
2023-05-13T09:39:31.566Z,4.88
2023-05-13T09:42:05.482Z,4.88
2023-05-13T09:44:34.254Z,5.47
2023-05-13T09:47:02.691Z,5.05
2023-05-13T09:49:31.925Z,5.68
2023-05-13T09:51:59.502Z,5.90
2023-05-13T09:54:29.015Z,4.78
2023-05-13T09:57:01.544Z,3.45
2023-05-13T09:59:32.922Z,3.78
2023-05-13T10:02:06.139Z,4.38
2023-05-13T10:04:34.407Z,4.57
2023-05-13T10:07:04.118Z,5.90
2023-05-13T10:09:38.908Z,4.18
2023-05-13T10:12:08.758Z,4.40
2023-05-13T10:14:38.172Z,5.78
2023-05-13T10:17:06.999Z,4.82
2023-05-13T10:19:35.502Z,4.97
2023-05-13T10:22:03.444Z,3.97
2023-05-13T10:24:31.960Z,9.68
2023-05-13T10:27:02.193Z,5.65
2023-05-13T10:29:30.151Z,4.97
2023-05-13T10:31:58.967Z,8.60
2023-05-13T10:34:27.990Z,3.17
2023-05-13T10:37:28.753Z,5.03
2023-05-13T10:40:24.576Z,3.80
2023-05-13T10:42:52.132Z,3.05
2023-05-13T10:45:19.692Z,5.75
2023-05-13T10:47:51.490Z,2.97
2023-05-13T10:50:25.894Z,4.97
2023-05-13T10:53:00.241Z,2.70
2023-05-13T10:55:28.435Z,3.45
2023-05-13T10:58:09.792Z,6.22
2023-05-13T11:00:39.042Z,3.83
2023-05-13T11:03:13.253Z,4.13
2023-05-13T11:05:44.453Z,5.40
2023-05-13T11:08:12.121Z,3.92
2023-05-13T11:10:41.991Z,4.28
2023-05-13T11:13:22.273Z,6.55
2023-05-13T11:15:51.793Z,4.13
2023-05-13T11:18:20.952Z,3.17
2023-05-13T11:20:54.097Z,5.20
2023-05-13T11:23:22.086Z,5.70
2023-05-13T11:26:12.793Z,3.85
2023-05-13T11:29:00.420Z,2.05
2023-05-13T11:31:41.785Z,2.33
2023-05-13T11:34:21.644Z,2.20
2023-05-13T11:36:51.018Z,3.03
2023-05-13T11:39:22.675Z,2.35
2023-05-13T11:41:51.003Z,3.63
2023-05-13T11:44:23.665Z,2.65
2023-05-13T11:46:52.155Z,2.90
2023-05-13T11:49:38.861Z,2.58
2023-05-13T11:52:14.709Z,5.40
2023-05-13T11:54:54.221Z,2.70
2023-05-13T11:57:32.814Z,3.75
2023-05-13T12:00:06.968Z,2.67
2023-05-13T12:05:08.737Z,3.33
2023-05-13T12:07:38.216Z,3.85
2023-05-13T12:10:07.275Z,3.78
2023-05-13T12:12:37.672Z,3.45
2023-05-13T12:15:08.208Z,3.97
2023-05-13T12:17:36.017Z,2.45
2023-05-13T12:20:14.624Z,2.95
2023-05-13T12:22:45.108Z,4.88
2023-05-13T12:25:40.708Z,2.78
2023-05-13T12:28:20.032Z,2.42
2023-05-13T12:30:54.482Z,4.43
2023-05-13T12:33:24.837Z,3.60
2023-05-13T12:35:54.595Z,5.63
2023-05-13T12:38:24.744Z,3.00
2023-05-13T12:40:53.205Z,3.70
2023-05-13T12:43:20.817Z,3.47
2023-05-13T12:45:54.840Z,2.60
2023-05-13T12:48:26.176Z,11.35
2023-05-13T12:50:53.762Z,3.72
2023-05-13T12:53:21.480Z,3.00
2023-05-13T12:55:49.039Z,7.55
2023-05-13T12:58:16.676Z,3.28
2023-05-13T13:00:44.480Z,3.58
2023-05-13T13:03:12.045Z,3.42
2023-05-13T13:05:39.680Z,3.95
2023-05-13T13:08:07.252Z,4.65
2023-05-13T13:10:34.997Z,3.15
2023-05-13T13:13:02.568Z,4.07
2023-05-13T13:15:30.072Z,4.82
2023-05-13T13:17:57.562Z,4.45
2023-05-13T13:20:25.199Z,5.22
2023-05-13T13:22:54.894Z,3.42
2023-05-13T13:25:22.783Z,3.55
2023-05-13T13:27:50.424Z,3.10
2023-05-13T13:30:17.920Z,2.58
2023-05-13T13:32:45.561Z,5.03
2023-05-13T13:35:13.058Z,4.63
2023-05-13T13:37:40.655Z,2.67
2023-05-13T13:40:08.688Z,3.53
2023-05-13T13:42:44.051Z,4.35
2023-05-13T13:45:13.893Z,3.80
2023-05-13T13:47:41.981Z,3.55
2023-05-13T13:50:11.276Z,3.30
2023-05-13T13:52:39.273Z,3.50
2023-05-13T13:55:08.190Z,3.38
2023-05-13T13:57:35.762Z,7.72
2023-05-13T14:00:03.601Z,3.55
2023-05-13T14:02:32.499Z,2.92
2023-05-13T14:05:00.153Z,5.05
2023-05-13T14:07:28.247Z,3.25
2023-05-13T14:09:56.045Z,3.47
2023-05-13T14:12:23.856Z,2.95
2023-05-13T14:14:51.422Z,4.47
2023-05-13T14:17:19.466Z,5.47
2023-05-13T14:19:47.404Z,5.88
2023-05-13T14:22:14.981Z,2.75
2023-05-13T14:24:42.576Z,4.60
2023-05-13T14:27:10.096Z,3.00
2023-05-13T14:29:37.838Z,6.60
2023-05-13T14:32:05.827Z,4.20
2023-05-13T14:34:34.762Z,5.53
2023-05-13T14:37:02.233Z,5.93
2023-05-13T14:39:30.389Z,5.78
2023-05-13T14:41:57.907Z,3.08
2023-05-13T14:44:25.531Z,3.70
2023-05-13T14:46:53.224Z,4.60
2023-05-13T14:49:20.766Z,5.60
2023-05-13T14:51:48.343Z,3.92
2023-05-13T14:54:17.832Z,5.25
2023-05-13T14:56:45.801Z,4.75
2023-05-13T14:59:13.425Z,3.72
2023-05-13T15:01:40.934Z,3.15
2023-05-13T15:04:08.422Z,4.07
2023-05-13T15:06:37.385Z,4.70
2023-05-13T15:09:05.916Z,2.65
2023-05-13T15:11:33.608Z,4.63
2023-05-13T15:14:01.941Z,3.35
2023-05-13T15:16:29.479Z,9.48
2023-05-13T15:18:57.403Z,2.83
2023-05-13T15:21:25.297Z,3.13
2023-05-13T15:23:52.807Z,5.05
2023-05-13T15:26:23.052Z,4.80
2023-05-13T15:28:50.697Z,6.72
2023-05-13T15:31:18.148Z,6.90
2023-05-13T15:33:45.783Z,5.05
2023-05-13T15:36:13.651Z,4.55
2023-05-13T15:38:41.637Z,7.40
2023-05-13T15:41:09.687Z,7.00
2023-05-13T15:43:37.770Z,7.20
2023-05-13T15:46:05.596Z,5.85
2023-05-13T15:48:34.163Z,5.55
2023-05-13T15:51:03.731Z,5.90
2023-05-13T15:53:32.293Z,4.45
2023-05-13T15:56:01.527Z,6.43
2023-05-13T15:58:29.205Z,5.80
2023-05-13T16:00:57.731Z,4.60
2023-05-13T16:03:25.834Z,5.07
2023-05-13T16:05:54.366Z,4.65
2023-05-13T16:08:21.997Z,5.15
2023-05-13T16:10:49.721Z,5.65
2023-05-13T16:13:17.246Z,6.10
2023-05-13T16:15:45.396Z,4.53
2023-05-13T16:18:13.313Z,8.60
2023-05-13T16:20:41.063Z,6.13
2023-05-13T16:23:08.638Z,7.32
2023-05-13T16:25:36.372Z,6.50
2023-05-13T16:28:04.004Z,7.78
2023-05-13T16:30:31.981Z,11.80
2023-05-13T16:32:59.757Z,6.80
2023-05-13T16:35:27.304Z,4.45
2023-05-13T16:37:54.814Z,5.38
2023-05-13T16:40:22.460Z,6.00
2023-05-13T16:42:50.102Z,5.07
2023-05-13T16:45:17.569Z,5.68
2023-05-13T16:47:45.108Z,5.57
2023-05-13T16:50:12.704Z,5.18
2023-05-13T16:52:40.221Z,5.40
2023-05-13T16:55:08.171Z,5.05
2023-05-13T16:57:35.987Z,5.18
2023-05-13T17:00:03.785Z,5.03
2023-05-13T17:02:31.290Z,6.43
2023-05-13T17:04:59.077Z,5.93
2023-05-13T17:07:26.493Z,7.28
2023-05-13T17:09:53.990Z,7.07
2023-05-13T17:12:21.449Z,5.18
2023-05-13T17:14:49.036Z,9.38
2023-05-13T17:17:16.528Z,6.55
2023-05-13T17:19:44.100Z,5.20
2023-05-13T17:22:11.684Z,4.97
2023-05-13T17:24:39.959Z,4.63
2023-05-13T17:27:08.143Z,5.88
2023-05-13T17:29:35.556Z,6.53
2023-05-13T17:32:03.798Z,5.68
2023-05-13T17:34:31.280Z,6.85
2023-05-13T17:36:58.706Z,7.97
2023-05-13T17:39:26.228Z,5.20
2023-05-13T17:41:53.707Z,7.35
2023-05-13T17:44:21.276Z,9.27
2023-05-13T17:46:48.672Z,6.95
2023-05-13T17:49:16.452Z,5.78
2023-05-13T17:51:44.072Z,6.65
2023-05-13T17:54:11.630Z,6.05
2023-05-13T17:56:39.102Z,7.60
2023-05-13T17:59:07.447Z,10.73
2023-05-13T18:01:34.875Z,5.82
2023-05-13T18:04:02.394Z,5.35
2023-05-13T18:06:29.888Z,7.15
2023-05-13T18:08:57.535Z,12.40
2023-05-13T18:11:25.029Z,5.93
2023-05-13T18:13:53.163Z,6.25
2023-05-13T18:16:20.725Z,8.13
2023-05-13T18:18:48.727Z,5.63
2023-05-13T18:21:16.712Z,5.40
2023-05-13T18:23:46.106Z,8.27
2023-05-13T18:26:13.521Z,5.63
2023-05-13T18:28:45.032Z,8.75
2023-05-13T18:31:12.661Z,6.28
2023-05-13T18:33:40.245Z,7.57
2023-05-13T18:36:09.299Z,8.02
2023-05-13T18:38:37.652Z,7.60
2023-05-13T18:41:06.277Z,9.23
2023-05-13T18:43:33.998Z,8.75
2023-05-13T18:46:01.543Z,6.03
2023-05-13T18:48:29.165Z,9.63
2023-05-13T18:50:56.711Z,6.40
2023-05-13T18:53:24.174Z,10.25
2023-05-13T18:55:51.870Z,7.35
2023-05-13T18:58:19.425Z,7.90
2023-05-13T19:00:47.100Z,7.40
2023-05-13T19:03:15.340Z,6.05
2023-05-13T19:05:43.063Z,7.47
2023-05-13T19:08:10.589Z,7.35
2023-05-13T19:10:40.442Z,6.25
2023-05-13T19:13:08.290Z,5.90
2023-05-13T19:15:35.993Z,7.18
2023-05-13T19:18:03.585Z,10.07
2023-05-13T19:20:31.186Z,9.00
2023-05-13T19:22:59.107Z,8.52
2023-05-13T19:25:26.698Z,7.72
2023-05-13T19:27:54.214Z,9.43
2023-05-13T19:30:21.930Z,7.05
2023-05-13T19:32:49.498Z,6.78
2023-05-13T19:35:17.175Z,6.55
2023-05-13T19:37:44.763Z,6.45
2023-05-13T19:40:12.403Z,6.78
2023-05-13T19:42:39.966Z,8.25
2023-05-13T19:45:08.167Z,8.02
2023-05-13T19:47:35.764Z,6.93
2023-05-13T19:50:03.844Z,6.85
2023-05-13T19:52:31.570Z,7.70
2023-05-13T19:54:59.026Z,8.07
2023-05-13T19:57:29.870Z,9.20
2023-05-13T19:59:58.693Z,12.23
2023-05-13T20:02:26.272Z,7.32
2023-05-13T20:04:53.763Z,9.02
2023-05-13T20:07:21.232Z,9.02
2023-05-13T20:09:48.790Z,8.27
2023-05-13T20:12:16.289Z,9.02
2023-05-13T20:14:45.958Z,11.20
2023-05-13T20:17:19.767Z,10.93
2023-05-13T20:19:48.996Z,11.68
2023-05-13T20:22:17.909Z,11.80
2023-05-13T20:24:47.040Z,9.50
2023-05-13T20:27:15.405Z,11.48
2023-05-13T20:29:45.554Z,9.68
2023-05-13T20:32:14.127Z,14.20
2023-05-13T20:34:42.199Z,8.70
2023-05-13T20:37:09.745Z,9.88
2023-05-13T20:39:37.217Z,8.90
2023-05-13T20:42:04.901Z,8.70
2023-05-13T20:44:32.772Z,11.63
2023-05-13T20:47:00.296Z,12.30
2023-05-13T20:49:27.880Z,11.15
2023-05-13T20:51:55.503Z,7.72
2023-05-13T20:54:23.022Z,10.13
2023-05-13T20:56:50.482Z,8.50
2023-05-13T20:59:18.045Z,8.93
2023-05-13T21:01:47.611Z,9.10
2023-05-13T21:04:15.437Z,8.60
2023-05-13T21:06:43.013Z,9.35
2023-05-13T21:09:10.484Z,8.80
2023-05-13T21:11:37.989Z,9.60
2023-05-13T21:14:05.828Z,12.75
2023-05-13T21:16:34.101Z,13.77
2023-05-13T21:19:01.970Z,24.45
2023-05-13T21:21:29.565Z,26.48
2023-05-13T21:23:57.010Z,10.35
2023-05-13T21:26:25.908Z,12.18
2023-05-13T21:28:53.501Z,17.85
2023-05-13T21:31:21.029Z,20.50
2023-05-13T21:33:49.144Z,18.80
2023-05-13T21:36:16.566Z,13.82
2023-05-13T21:38:44.092Z,10.55
2023-05-13T21:41:11.536Z,9.13
2023-05-13T21:43:39.055Z,13.27
2023-05-13T21:46:06.721Z,14.43
2023-05-13T21:48:34.230Z,9.73
2023-05-13T21:51:01.732Z,9.02
2023-05-13T21:53:29.747Z,10.25
2023-05-13T21:55:59.086Z,12.13
2023-05-13T21:58:27.128Z,10.95
2023-05-13T22:00:54.627Z,13.20
2023-05-13T22:03:22.425Z,12.70
2023-05-13T22:05:50.009Z,12.80
2023-05-13T22:08:17.548Z,11.50
2023-05-13T22:10:44.888Z,10.73
2023-05-13T22:13:12.428Z,9.77
2023-05-13T22:15:39.981Z,12.18
2023-05-13T22:18:07.680Z,11.75
2023-05-13T22:20:35.204Z,12.70
2023-05-13T22:23:02.713Z,14.35
2023-05-13T22:25:30.184Z,19.67
2023-05-13T22:27:57.787Z,13.93
2023-05-13T22:30:25.706Z,13.90
2023-05-13T22:32:53.576Z,17.65
2023-05-13T22:35:21.125Z,21.10
2023-05-13T22:37:50.684Z,22.40
2023-05-13T22:40:18.184Z,19.08
2023-05-13T22:42:45.624Z,17.33
2023-05-13T22:45:13.216Z,19.92
2023-05-13T22:47:40.729Z,22.10
2023-05-13T22:50:08.504Z,13.07
2023-05-13T22:52:35.945Z,10.88
2023-05-13T22:55:03.500Z,8.52
2023-05-13T22:57:30.968Z,9.40
2023-05-13T22:59:58.429Z,10.18
2023-05-13T23:02:26.012Z,11.15
2023-05-13T23:04:53.495Z,10.90
2023-05-13T23:07:20.995Z,10.18
2023-05-13T23:09:48.454Z,8.40
2023-05-13T23:12:16.227Z,9.65
2023-05-13T23:14:43.800Z,8.60
2023-05-13T23:17:11.172Z,9.85
2023-05-13T23:19:38.710Z,9.88
2023-05-13T23:22:06.202Z,12.63
2023-05-13T23:24:33.711Z,10.93
2023-05-13T23:27:01.311Z,10.05
2023-05-13T23:29:28.883Z,8.77
2023-05-13T23:31:56.656Z,7.65
2023-05-13T23:34:24.612Z,9.00
2023-05-13T23:36:52.171Z,12.27
2023-05-13T23:39:19.648Z,9.25
2023-05-13T23:41:47.149Z,10.43
2023-05-13T23:44:14.648Z,8.88
2023-05-13T23:46:42.772Z,7.72
2023-05-13T23:49:10.233Z,8.18
2023-05-13T23:51:38.692Z,12.65
2023-05-13T23:54:08.242Z,9.98
2023-05-13T23:56:35.755Z,10.32
2023-05-13T23:59:03.288Z,9.70
